Time;durP1;ratioP1;P1;durP2;ratioP2;P2;SDS_P1;SDS_P2;PMS_P1;PMS_P2;Temp;Humidity;BMP_temperature;BMP_pressure;BME280_temperature;BME280_humidity;BME280_pressure;Samples;Min_cycle;Max_cycle;Signal;HPM_P1;HPM_P2
2023/06/08 00:00:50;;;;;;;22.00;8.82;;;16.80;99.90;;;;;;5057539;28;20043;-66
2023/06/08 00:03:17;;;;;;;22.33;8.38;;;16.90;99.90;;;;;;5046788;28;20033;-66
2023/06/08 00:05:47;;;;;;;17.75;8.65;;;16.90;99.90;;;;;;5055107;28;20059;-67
2023/06/08 00:08:12;;;;;;;17.67;9.18;;;16.80;99.90;;;;;;5063028;28;20128;-66
2023/06/08 00:10:44;;;;;;;19.35;8.95;;;16.60;99.90;;;;;;5065407;28;20104;-66
2023/06/08 00:13:10;;;;;;;19.85;9.18;;;16.70;99.90;;;;;;5063834;28;20032;-66
2023/06/08 00:15:36;;;;;;;23.05;9.35;;;16.70;99.90;;;;;;5065000;28;20032;-66
2023/06/08 00:18:02;;;;;;;21.13;9.18;;;16.70;99.90;;;;;;5063838;28;20028;-66
2023/06/08 00:20:28;;;;;;;22.08;9.38;;;16.70;99.90;;;;;;5064132;28;20451;-67
2023/06/08 00:22:56;;;;;;;17.05;8.55;;;16.60;99.90;;;;;;5065284;28;20036;-67
2023/06/08 00:25:22;;;;;;;26.13;9.13;;;16.70;99.90;;;;;;5064510;28;20036;-66
2023/06/08 00:27:47;;;;;;;19.50;8.63;;;16.50;99.90;;;;;;5065980;28;20039;-68
2023/06/08 00:30:16;;;;;;;19.58;9.13;;;16.60;99.90;;;;;;5064410;28;20032;-66
2023/06/08 00:32:42;;;;;;;15.82;9.25;;;16.70;99.90;;;;;;5056370;28;20484;-66
2023/06/08 00:35:08;;;;;;;23.05;9.15;;;16.70;99.90;;;;;;5067094;28;20048;-65
2023/06/08 00:37:36;;;;;;;16.75;9.18;;;16.30;99.90;;;;;;5063781;28;20358;-66
2023/06/08 00:40:04;;;;;;;19.75;10.07;;;16.30;99.90;;;;;;5064909;28;20060;-61
2023/06/08 00:42:30;;;;;;;17.25;9.27;;;16.40;99.90;;;;;;5057602;28;20488;-66
2023/06/08 00:44:56;;;;;;;19.60;9.25;;;16.50;99.90;;;;;;5064925;28;20396;-66
2023/06/08 00:47:22;;;;;;;13.63;8.60;;;16.50;99.90;;;;;;5055481;28;20037;-66
2023/06/08 00:49:48;;;;;;;17.98;9.55;;;16.40;99.90;;;;;;5053870;28;20027;-66
2023/06/08 00:52:16;;;;;;;15.38;9.98;;;16.50;99.90;;;;;;5054720;28;20112;-65
2023/06/08 00:54:43;;;;;;;20.55;9.80;;;16.40;99.90;;;;;;5059174;28;20090;-66
2023/06/08 00:57:10;;;;;;;23.02;9.75;;;16.40;99.90;;;;;;5062913;28;20060;-66
2023/06/08 00:59:36;;;;;;;17.77;9.55;;;16.20;99.90;;;;;;5044591;28;20040;-66
2023/06/08 01:02:04;;;;;;;17.98;10.13;;;16.20;99.90;;;;;;5060141;28;20131;-62
2023/06/08 01:04:31;;;;;;;19.85;9.40;;;16.10;99.90;;;;;;5057339;28;20033;-66
2023/06/08 01:10:29;;;;;;;17.45;9.45;;;16.20;99.90;;;;;;5047163;28;20615;-66
2023/06/08 01:13:08;;;;;;;19.67;9.82;;;16.20;99.90;;;;;;5064511;28;20119;-66
2023/06/08 01:15:42;;;;;;;23.77;9.75;;;16.20;99.90;;;;;;5062895;28;20033;-66
2023/06/08 01:18:09;;;;;;;18.48;10.38;;;16.40;99.90;;;;;;5058716;28;20384;-66
2023/06/08 01:21:06;;;;;;;20.35;10.50;;;16.30;99.90;;;;;;5064454;28;20025;-66
2023/06/08 01:23:44;;;;;;;21.60;10.43;;;16.10;99.90;;;;;;5053260;28;20112;-66
2023/06/08 01:26:15;;;;;;;22.85;10.55;;;16.10;99.90;;;;;;5047108;28;20033;-67
2023/06/08 01:28:42;;;;;;;22.73;10.50;;;16.00;99.90;;;;;;5064230;28;20028;-67
2023/06/08 01:31:07;;;;;;;20.65;9.77;;;16.00;99.90;;;;;;5063857;28;20028;-65
2023/06/08 01:33:33;;;;;;;20.58;9.82;;;16.20;99.90;;;;;;5063797;28;20032;-66
2023/06/08 01:36:10;;;;;;;19.00;10.63;;;16.30;99.90;;;;;;5062813;28;20041;-66
2023/06/08 01:38:57;;;;;;;19.20;10.35;;;16.10;99.90;;;;;;5063180;28;20037;-67
2023/06/08 01:41:26;;;;;;;22.33;10.00;;;16.10;99.90;;;;;;5063849;28;20086;-67
2023/06/08 01:43:52;;;;;;;20.02;10.20;;;16.10;99.90;;;;;;5061296;28;20404;-67
2023/06/08 01:46:21;;;;;;;20.70;11.05;;;16.10;99.90;;;;;;5064203;28;20447;-67
2023/06/08 01:48:49;;;;;;;20.58;10.05;;;16.10;99.90;;;;;;5068059;28;20063;-67
2023/06/08 01:51:15;;;;;;;13.88;10.18;;;16.00;99.90;;;;;;5067049;28;20476;-66
2023/06/08 01:53:42;;;;;;;19.80;11.05;;;16.00;99.90;;;;;;5062522;28;20504;-66
2023/06/08 01:56:07;;;;;;;24.50;10.38;;;16.00;99.90;;;;;;5064496;28;20442;-65
2023/06/08 01:58:33;;;;;;;16.80;10.23;;;16.00;99.90;;;;;;5066645;28;20043;-67
2023/06/08 02:00:58;;;;;;;21.45;10.82;;;16.10;99.90;;;;;;5067651;28;20044;-67
2023/06/08 02:03:24;;;;;;;18.02;11.07;;;16.10;99.90;;;;;;5066446;28;20184;-66
2023/06/08 02:05:50;;;;;;;22.63;11.05;;;16.00;99.90;;;;;;5065987;28;20028;-67
2023/06/08 02:08:15;;;;;;;21.10;10.68;;;16.00;99.90;;;;;;5063882;28;20075;-66
2023/06/08 02:10:41;;;;;;;18.48;10.52;;;16.00;99.90;;;;;;5053224;28;20392;-66
2023/06/08 02:13:07;;;;;;;22.67;10.80;;;16.00;99.90;;;;;;5066748;28;20034;-64
2023/06/08 02:15:32;;;;;;;17.95;10.13;;;16.10;99.90;;;;;;5067131;28;20115;-66
2023/06/08 02:17:58;;;;;;;24.08;10.18;;;15.90;99.90;;;;;;5059546;28;20017;-66
2023/06/08 02:20:24;;;;;;;20.40;10.73;;;16.10;99.90;;;;;;5056639;28;20074;-66
2023/06/08 02:22:50;;;;;;;21.30;10.63;;;16.00;99.90;;;;;;5066947;28;20086;-67
2023/06/08 02:25:15;;;;;;;17.98;10.13;;;16.10;99.90;;;;;;5066431;28;20029;-66
2023/06/08 02:27:43;;;;;;;19.70;10.50;;;16.10;99.90;;;;;;5066858;28;20051;-67
2023/06/08 02:30:10;;;;;;;19.05;10.95;;;16.00;99.90;;;;;;5066520;28;20032;-66
2023/06/08 02:32:36;;;;;;;18.42;9.65;;;16.20;99.90;;;;;;5067405;28;20044;-66
2023/06/08 02:35:03;;;;;;;20.15;11.05;;;16.10;99.90;;;;;;5065777;28;20354;-63
2023/06/08 02:37:30;;;;;;;19.20;10.73;;;16.10;99.90;;;;;;5066242;28;20040;-66
2023/06/08 02:39:56;;;;;;;19.85;10.50;;;16.10;99.90;;;;;;5065723;28;20028;-66
2023/06/08 02:42:22;;;;;;;24.33;11.38;;;16.20;99.90;;;;;;5063215;28;20044;-66
2023/06/08 02:44:47;;;;;;;19.58;10.10;;;16.10;99.90;;;;;;5066755;28;20025;-66
2023/06/08 02:47:15;;;;;;;24.40;10.27;;;16.10;99.90;;;;;;5063683;28;20404;-66
2023/06/08 02:49:40;;;;;;;17.23;10.57;;;16.00;99.90;;;;;;5052708;28;20033;-66
2023/06/08 02:52:07;;;;;;;22.63;10.32;;;16.00;99.90;;;;;;5061830;28;20105;-66
2023/06/08 02:54:32;;;;;;;21.05;11.05;;;15.90;99.90;;;;;;5061177;28;20496;-67
2023/06/08 02:56:58;;;;;;;20.30;10.13;;;15.90;99.90;;;;;;5052142;28;20039;-66
2023/06/08 02:59:23;;;;;;;17.13;10.10;;;15.90;99.90;;;;;;5066203;28;20032;-67
2023/06/08 03:01:53;;;;;;;19.65;10.73;;;15.80;99.90;;;;;;5066269;28;20039;-67
2023/06/08 03:04:23;;;;;;;22.17;10.80;;;15.70;99.90;;;;;;5068148;28;20040;-66
2023/06/08 03:06:53;;;;;;;21.75;10.98;;;15.80;99.90;;;;;;5051468;28;20040;-67
2023/06/08 03:09:29;;;;;;;20.42;10.98;;;15.70;99.90;;;;;;5065847;28;20640;-67
2023/06/08 03:11:56;;;;;;;24.10;11.73;;;15.80;99.90;;;;;;5065520;28;20044;-67
2023/06/08 03:14:28;;;;;;;23.52;10.93;;;15.90;99.90;;;;;;5064589;28;20120;-66
2023/06/08 03:17:03;;;;;;;22.35;10.95;;;15.70;99.90;;;;;;5057800;28;20041;-67
2023/06/08 03:19:32;;;;;;;17.77;10.77;;;15.70;99.90;;;;;;5050554;28;20065;-66
2023/06/08 03:22:04;;;;;;;19.85;11.13;;;15.90;99.90;;;;;;5046206;28;20100;-67
2023/06/08 03:24:31;;;;;;;19.30;10.68;;;15.70;99.90;;;;;;5054169;28;20566;-66
2023/06/08 03:26:58;;;;;;;21.25;10.27;;;15.40;99.90;;;;;;5064762;28;20028;-67
2023/06/08 03:29:25;;;;;;;22.02;10.80;;;15.40;99.90;;;;;;5065649;28;20028;-67
2023/06/08 03:31:51;;;;;;;18.55;10.77;;;15.30;99.90;;;;;;5066004;28;20078;-66
2023/06/08 03:34:17;;;;;;;19.60;11.05;;;15.40;99.90;;;;;;5062693;28;20037;-66
2023/06/08 03:36:43;;;;;;;23.08;10.88;;;15.40;99.90;;;;;;5060224;28;20033;-66
2023/06/08 03:39:09;;;;;;;18.23;10.40;;;15.50;99.90;;;;;;5054121;28;20032;-66
2023/06/08 03:41:35;;;;;;;20.50;10.70;;;15.50;99.90;;;;;;5065527;28;20036;-66
2023/06/08 03:44:01;;;;;;;24.23;10.77;;;15.50;99.90;;;;;;5061787;28;20528;-67
2023/06/08 03:46:27;;;;;;;18.75;10.35;;;15.50;99.90;;;;;;5062915;28;20257;-67
2023/06/08 03:48:52;;;;;;;19.35;10.50;;;15.60;99.90;;;;;;5064559;28;20031;-67
2023/06/08 03:51:22;;;;;;;18.15;10.10;;;15.50;99.90;;;;;;5064722;28;20179;-66
2023/06/08 03:53:48;;;;;;;18.05;9.90;;;15.50;99.90;;;;;;5065505;28;20025;-66
2023/06/08 03:56:14;;;;;;;20.00;9.82;;;15.50;99.90;;;;;;5064365;28;20255;-66
2023/06/08 03:58:41;;;;;;;20.05;10.90;;;15.40;99.90;;;;;;5063210;28;20521;-66
2023/06/08 04:01:10;;;;;;;19.60;10.57;;;15.40;99.90;;;;;;5064415;28;20075;-65
2023/06/08 04:03:36;;;;;;;18.92;10.63;;;15.50;99.90;;;;;;5057644;28;20040;-66
2023/06/08 04:06:01;;;;;;;18.75;10.63;;;15.30;99.90;;;;;;5061580;28;20318;-67
2023/06/08 04:08:31;;;;;;;19.17;10.63;;;15.30;99.90;;;;;;5059903;28;20025;-67
2023/06/08 04:11:00;;;;;;;21.67;10.57;;;15.30;99.90;;;;;;5059945;28;20032;-67
2023/06/08 04:13:25;;;;;;;15.82;10.13;;;15.20;99.90;;;;;;5056622;28;20476;-66
2023/06/08 04:15:51;;;;;;;21.83;10.13;;;15.20;99.90;;;;;;5056013;28;20032;-67
2023/06/08 04:18:17;;;;;;;19.00;10.68;;;15.20;99.90;;;;;;5055243;28;20037;-66
2023/06/08 04:20:43;;;;;;;20.05;10.27;;;15.30;99.90;;;;;;5060149;28;20496;-66
2023/06/08 04:23:10;;;;;;;18.15;10.70;;;15.40;99.90;;;;;;5053885;28;20032;-65
2023/06/08 04:25:36;;;;;;;16.00;10.18;;;15.50;99.90;;;;;;5064601;28;20028;-66
2023/06/08 04:28:02;;;;;;;20.77;10.30;;;15.30;99.90;;;;;;5064672;28;20119;-64
2023/06/08 04:30:28;;;;;;;21.83;10.77;;;15.40;99.90;;;;;;5065278;28;20120;-66
2023/06/08 04:32:55;;;;;;;19.17;10.65;;;15.40;99.90;;;;;;5057768;28;20459;-66
2023/06/08 04:35:21;;;;;;;17.58;10.65;;;15.30;99.90;;;;;;5064297;28;20495;-66
2023/06/08 04:37:47;;;;;;;18.58;10.18;;;15.30;99.90;;;;;;5064378;28;20020;-66
2023/06/08 04:40:13;;;;;;;20.45;10.35;;;15.30;99.90;;;;;;5063823;28;20036;-66
2023/06/08 04:42:39;;;;;;;20.02;10.27;;;15.30;99.90;;;;;;5062870;28;20031;-67
2023/06/08 04:45:08;;;;;;;21.92;10.63;;;15.60;99.90;;;;;;5064138;28;20078;-66
2023/06/08 04:47:36;;;;;;;15.95;10.38;;;15.80;99.90;;;;;;5062622;28;20035;-66
2023/06/08 04:50:02;;;;;;;21.25;10.07;;;15.70;99.90;;;;;;5062262;28;20039;-65
2023/06/08 04:52:30;;;;;;;18.77;10.15;;;15.70;99.90;;;;;;5064672;28;20036;-67
2023/06/08 04:55:01;;;;;;;17.58;10.38;;;15.80;99.90;;;;;;5062590;28;20445;-67
2023/06/08 04:57:26;;;;;;;21.15;10.63;;;15.70;99.90;;;;;;5057030;28;21312;-66
2023/06/08 04:59:52;;;;;;;19.48;10.25;;;15.70;99.90;;;;;;5064544;28;20035;-67
2023/06/08 05:02:18;;;;;;;22.05;10.40;;;15.60;99.90;;;;;;5063774;28;20040;-68
2023/06/08 05:04:44;;;;;;;19.70;10.25;;;15.60;99.90;;;;;;5059206;28;20052;-66
2023/06/08 05:07:10;;;;;;;22.73;10.85;;;15.80;99.90;;;;;;5053753;28;20500;-66
2023/06/08 05:09:35;;;;;;;21.17;10.90;;;15.80;99.90;;;;;;5051978;28;20025;-68
2023/06/08 05:12:01;;;;;;;23.83;11.02;;;15.70;99.90;;;;;;5044807;28;20508;-67
2023/06/08 05:14:26;;;;;;;18.38;10.25;;;15.80;99.90;;;;;;5062139;28;20118;-66
2023/06/08 05:16:52;;;;;;;23.98;10.90;;;15.90;99.90;;;;;;5056446;28;20051;-68
2023/06/08 05:19:17;;;;;;;23.08;10.30;;;15.90;99.90;;;;;;5065388;28;20040;-66
2023/06/08 05:21:43;;;;;;;23.45;10.70;;;16.10;99.90;;;;;;5067298;28;20114;-68
2023/06/08 05:24:08;;;;;;;21.55;10.38;;;16.00;99.90;;;;;;5067689;28;20037;-66
2023/06/08 05:26:34;;;;;;;17.02;10.88;;;16.20;99.90;;;;;;5067201;28;20032;-66
2023/06/08 05:29:01;;;;;;;24.33;11.15;;;16.30;99.90;;;;;;5068113;28;20488;-67
2023/06/08 05:31:27;;;;;;;19.55;11.15;;;16.30;99.90;;;;;;5067743;28;20032;-67
2023/06/08 05:33:52;;;;;;;21.65;10.77;;;16.30;99.90;;;;;;5067644;28;20041;-68
2023/06/08 05:36:18;;;;;;;17.65;10.13;;;16.20;99.90;;;;;;5067212;28;20040;-66
2023/06/08 05:38:44;;;;;;;22.27;11.13;;;16.20;99.90;;;;;;5067607;28;20044;-67
2023/06/08 05:41:09;;;;;;;26.60;11.20;;;16.20;99.90;;;;;;5067446;28;20029;-66
2023/06/08 05:43:35;;;;;;;23.05;10.85;;;16.20;99.90;;;;;;5065578;28;20361;-66
2023/06/08 05:46:00;;;;;;;20.80;10.80;;;16.20;99.90;;;;;;5065441;28;20040;-68
2023/06/08 05:48:26;;;;;;;21.00;11.00;;;16.40;99.90;;;;;;5051900;28;20071;-66
2023/06/08 05:50:52;;;;;;;21.02;11.15;;;16.40;99.90;;;;;;5053712;28;20488;-67
2023/06/08 05:53:17;;;;;;;21.88;10.68;;;16.40;99.90;;;;;;5054407;28;20034;-66
2023/06/08 05:55:44;;;;;;;21.05;11.65;;;16.60;99.90;;;;;;5047591;28;20025;-67
2023/06/08 05:58:10;;;;;;;25.55;10.90;;;16.80;99.90;;;;;;5061670;28;20028;-66
2023/06/08 06:00:36;;;;;;;22.58;11.43;;;16.90;99.90;;;;;;5066709;28;20535;-66
2023/06/08 06:03:01;;;;;;;19.70;10.40;;;16.90;99.90;;;;;;5067049;28;20109;-67
2023/06/08 06:05:27;;;;;;;17.08;10.68;;;16.70;99.90;;;;;;5067340;28;20039;-67
2023/06/08 06:07:53;;;;;;;19.77;10.40;;;16.50;99.90;;;;;;5054060;28;20183;-68
2023/06/08 06:10:18;;;;;;;23.27;11.27;;;16.80;99.90;;;;;;5063623;28;20516;-67
2023/06/08 06:12:44;;;;;;;20.13;10.77;;;16.70;99.90;;;;;;5067163;28;20288;-67
2023/06/08 06:15:10;;;;;;;20.50;10.75;;;16.70;99.90;;;;;;5066465;28;20035;-66
2023/06/08 06:17:35;;;;;;;20.30;11.27;;;16.70;99.90;;;;;;5059991;28;20025;-66
2023/06/08 06:20:01;;;;;;;21.23;11.98;;;16.70;99.90;;;;;;5067229;28;20037;-67
2023/06/08 06:22:27;;;;;;;20.92;12.02;;;17.00;99.90;;;;;;5058982;28;20020;-67
2023/06/08 06:24:52;;;;;;;22.88;11.20;;;17.00;99.90;;;;;;5066962;28;20028;-68
2023/06/08 06:27:19;;;;;;;18.30;11.30;;;17.00;99.90;;;;;;5066522;28;20035;-66
2023/06/08 06:29:44;;;;;;;19.27;10.45;;;16.90;99.90;;;;;;5066681;28;20036;-66
2023/06/08 06:32:10;;;;;;;21.58;10.70;;;17.20;99.90;;;;;;5065523;28;20185;-67
2023/06/08 06:34:37;;;;;;;21.10;11.13;;;17.10;99.90;;;;;;5066237;28;20055;-67
2023/06/08 06:37:03;;;;;;;20.17;10.15;;;17.10;99.90;;;;;;5066226;28;20029;-66
2023/06/08 06:39:29;;;;;;;16.55;10.98;;;17.00;99.90;;;;;;5066837;28;20602;-67
2023/06/08 06:41:54;;;;;;;21.98;10.95;;;16.90;99.90;;;;;;5066651;28;20353;-67
2023/06/08 06:44:20;;;;;;;18.58;10.45;;;17.00;99.90;;;;;;5062968;28;20036;-67
2023/06/08 06:46:46;;;;;;;20.90;10.35;;;16.90;99.90;;;;;;5064291;28;20040;-67
2023/06/08 06:49:11;;;;;;;16.33;9.88;;;17.10;99.90;;;;;;5056113;28;20491;-67
2023/06/08 06:51:39;;;;;;;18.17;10.27;;;17.10;99.90;;;;;;5058740;28;20098;-67
2023/06/08 06:54:05;;;;;;;16.90;10.15;;;17.30;99.90;;;;;;5066123;28;20073;-66
2023/06/08 06:56:31;;;;;;;20.25;11.00;;;17.50;99.90;;;;;;5065165;28;20086;-68
2023/06/08 06:58:57;;;;;;;20.33;11.38;;;17.60;99.90;;;;;;5065387;28;20028;-67
2023/06/08 07:01:23;;;;;;;20.42;11.25;;;17.50;99.90;;;;;;5066127;28;20427;-68
2023/06/08 07:03:49;;;;;;;14.27;10.27;;;;;;;;;;5065187;28;20512;-67
2023/06/08 07:06:15;;;;;;;22.55;10.82;;;17.90;99.90;;;;;;5064238;28;20040;-66
2023/06/08 07:08:44;;;;;;;21.48;10.88;;;18.30;99.90;;;;;;5059255;28;20358;-66
2023/06/08 07:11:11;;;;;;;17.23;9.90;;;18.20;99.90;;;;;;5046496;28;20037;-66
2023/06/08 07:13:37;;;;;;;16.92;10.15;;;18.40;99.90;;;;;;5057587;28;20041;-67
2023/06/08 07:16:03;;;;;;;21.98;10.73;;;18.20;99.90;;;;;;5064948;28;20135;-66
2023/06/08 07:18:29;;;;;;;19.80;10.27;;;18.10;99.90;;;;;;5054552;28;20111;-67
2023/06/08 07:20:55;;;;;;;20.33;10.38;;;18.20;99.90;;;;;;5065788;28;20060;-67
2023/06/08 07:23:20;;;;;;;19.83;10.27;;;18.30;99.90;;;;;;5065313;28;20052;-67
2023/06/08 07:25:46;;;;;;;18.17;10.25;;;18.40;99.90;;;;;;5064782;28;20028;-67
2023/06/08 07:28:11;;;;;;;18.50;10.00;;;18.40;99.90;;;;;;5064741;28;20043;-66
2023/06/08 07:30:37;;;;;;;15.95;10.20;;;18.60;99.90;;;;;;5064929;28;20373;-67
2023/06/08 07:33:03;;;;;;;18.13;9.65;;;18.70;99.90;;;;;;5065069;28;20768;-66
2023/06/08 07:35:29;;;;;;;16.45;9.35;;;18.70;99.90;;;;;;5064925;28;20056;-67
2023/06/08 07:37:55;;;;;;;17.55;9.55;;;18.50;99.90;;;;;;5063777;28;20314;-67
2023/06/08 07:40:20;;;;;;;25.23;10.77;;;18.20;99.90;;;;;;5064640;28;20033;-66
2023/06/08 07:42:46;;;;;;;18.70;10.80;;;18.10;99.90;;;;;;5062658;28;20029;-67
2023/06/08 07:45:13;;;;;;;18.00;10.02;;;17.70;99.90;;;;;;5064331;28;20128;-66
2023/06/08 07:47:40;;;;;;;21.50;11.18;;;17.70;99.90;;;;;;5051760;28;20025;-66
2023/06/08 07:50:09;;;;;;;19.48;10.68;;;17.80;99.90;;;;;;5045261;28;20484;-66
2023/06/08 07:52:35;;;;;;;16.70;10.68;;;18.00;99.90;;;;;;5065299;28;20389;-66
2023/06/08 07:55:01;;;;;;;19.65;10.80;;;18.30;99.90;;;;;;5064737;28;20036;-67
2023/06/08 07:57:26;;;;;;;17.88;10.70;;;18.50;99.90;;;;;;5065134;28;20411;-67
2023/06/08 07:59:52;;;;;;;20.45;10.15;;;18.30;99.90;;;;;;5049468;28;20277;-68
2023/06/08 08:02:18;;;;;;;17.98;10.80;;;18.70;99.90;;;;;;5047574;28;20028;-66
2023/06/08 08:04:44;;;;;;;21.50;11.57;;;19.00;99.90;;;;;;5065096;28;20386;-66
2023/06/08 08:07:10;;;;;;;24.02;12.07;;;19.00;99.90;;;;;;5064567;28;20033;-66
2023/06/08 08:09:36;;;;;;;17.60;11.02;;;19.20;99.90;;;;;;5063105;28;20139;-66
2023/06/08 08:12:01;;;;;;;20.27;10.75;;;19.30;99.90;;;;;;5057576;28;20531;-60
2023/06/08 08:14:27;;;;;;;18.00;10.95;;;19.30;99.90;;;;;;5060853;28;20077;-66
2023/06/08 08:16:53;;;;;;;17.25;10.32;;;19.30;99.90;;;;;;5059205;28;20055;-66
2023/06/08 08:19:19;;;;;;;17.45;10.15;;;19.30;99.90;;;;;;5055798;28;20040;-67
2023/06/08 08:21:45;;;;;;;16.25;10.05;;;19.20;99.90;;;;;;5065226;28;20527;-67
2023/06/08 08:24:10;;;;;;;20.05;10.90;;;19.00;99.90;;;;;;5049747;28;20037;-66
2023/06/08 08:26:43;;;;;;;19.40;10.10;;;19.10;99.90;;;;;;5065411;28;20029;-66
2023/06/08 08:29:09;;;;;;;17.95;10.73;;;19.40;99.90;;;;;;5064925;28;20032;-66
2023/06/08 08:31:35;;;;;;;19.85;10.82;;;19.30;99.90;;;;;;5067646;28;20522;-66
2023/06/08 08:34:01;;;;;;;16.02;9.65;;;19.60;99.90;;;;;;5064049;28;20033;-66
2023/06/08 08:36:27;;;;;;;18.60;10.10;;;19.90;99.90;;;;;;5064914;28;20033;-66
2023/06/08 08:38:52;;;;;;;17.52;10.05;;;20.20;99.90;;;;;;5065187;28;20037;-66
2023/06/08 08:41:25;;;;;;;18.63;10.32;;;20.20;99.90;;;;;;5064518;28;20041;-66
2023/06/08 08:44:01;;;;;;;18.92;10.48;;;20.10;99.90;;;;;;5062585;28;20484;-66
2023/06/08 08:46:32;;;;;;;18.10;10.13;;;19.90;99.90;;;;;;5051611;28;20043;-66
2023/06/08 08:49:00;;;;;;;22.60;10.88;;;19.90;99.90;;;;;;5053782;28;20040;-66
2023/06/08 08:51:28;;;;;;;16.02;10.45;;;20.00;99.90;;;;;;5063201;28;20464;-66
2023/06/08 08:53:55;;;;;;;16.30;10.13;;;19.90;99.90;;;;;;5066878;28;20025;-66
2023/06/08 08:56:22;;;;;;;21.67;10.48;;;19.90;99.90;;;;;;5059694;28;20032;-66
2023/06/08 08:58:50;;;;;;;17.80;10.65;;;19.90;99.90;;;;;;5061988;28;20040;-66
2023/06/08 09:01:17;;;;;;;20.63;10.98;;;19.90;99.90;;;;;;5057933;28;20040;-66
2023/06/08 09:03:43;;;;;;;20.50;11.10;;;19.80;99.90;;;;;;5068788;28;20116;-67
2023/06/08 09:06:09;;;;;;;22.42;10.35;;;20.10;99.90;;;;;;5067036;28;20222;-66
2023/06/08 09:08:34;;;;;;;20.25;10.20;;;20.30;99.90;;;;;;5055844;28;20060;-66
2023/06/08 09:11:06;;;;;;;20.92;10.65;;;20.00;99.90;;;;;;5048787;28;20025;-66
2023/06/08 09:13:33;;;;;;;20.48;10.98;;;20.30;99.90;;;;;;5058542;28;20227;-66
2023/06/08 09:16:14;;;;;;;22.70;10.40;;;20.40;99.90;;;;;;5067890;28;20028;-66
2023/06/08 09:18:41;;;;;;;18.15;10.68;;;20.00;99.90;;;;;;5054518;28;20029;-66
2023/06/08 09:21:29;;;;;;;19.70;10.65;;;20.40;99.90;;;;;;5067477;28;20039;-65
2023/06/08 09:24:17;;;;;;;20.55;11.30;;;20.60;99.90;;;;;;5052550;28;20032;-67
2023/06/08 09:26:56;;;;;;;19.88;10.13;;;20.60;99.90;;;;;;5053810;28;20112;-66
2023/06/08 09:29:40;;;;;;;19.30;10.35;;;20.60;99.90;;;;;;5058102;28;20086;-66
2023/06/08 09:32:12;;;;;;;20.48;11.00;;;20.80;99.90;;;;;;5067286;28;20443;-67
2023/06/08 09:34:49;;;;;;;21.87;11.57;;;20.90;99.90;;;;;;5068151;28;20044;-67
2023/06/08 09:37:15;;;;;;;21.25;10.05;;;21.00;99.90;;;;;;5067042;28;20039;-66
2023/06/08 09:39:45;;;;;;;18.02;10.68;;;21.30;99.90;;;;;;5063046;28;20634;-67
2023/06/08 09:42:11;;;;;;;18.05;9.90;;;21.40;99.90;;;;;;5061778;28;20380;-65
2023/06/08 09:44:38;;;;;;;22.15;10.35;;;21.60;99.90;;;;;;5067937;28;20028;-67
2023/06/08 09:47:26;;;;;;;17.08;10.30;;;21.60;99.90;;;;;;5061044;28;20459;-67
2023/06/08 09:49:53;;;;;;;17.52;9.02;;;21.60;99.90;;;;;;5052622;28;20115;-65
2023/06/08 09:52:23;;;;;;;16.77;9.90;;;21.60;99.90;;;;;;5061487;28;20032;-65
2023/06/08 09:54:49;;;;;;;17.88;8.73;;;21.90;99.90;;;;;;5047491;28;20388;-67
2023/06/08 09:57:17;;;;;;;16.48;8.45;;;21.90;99.90;;;;;;5055360;28;20121;-65
2023/06/08 09:59:49;;;;;;;17.95;9.00;;;22.40;99.90;;;;;;5067529;28;20029;-66
2023/06/08 10:02:22;;;;;;;17.48;8.82;;;22.40;99.90;;;;;;5059710;28;20511;-66
2023/06/08 10:04:55;;;;;;;13.10;8.00;;;22.60;99.90;;;;;;5052482;28;20385;-66
2023/06/08 10:07:29;;;;;;;16.15;8.55;;;22.40;99.90;;;;;;5057765;28;20032;-65
2023/06/08 10:10:00;;;;;;;15.10;7.95;;;;;;;;;;5049965;28;20072;-65
2023/06/08 10:12:28;;;;;;;14.27;8.32;;;23.00;99.90;;;;;;5058708;28;20532;-66
2023/06/08 10:14:56;;;;;;;16.75;9.52;;;22.70;99.90;;;;;;5066924;28;20094;-65
2023/06/08 10:17:22;;;;;;;15.82;8.52;;;22.50;99.90;;;;;;5063136;28;20047;-66
2023/06/08 10:19:48;;;;;;;15.77;8.93;;;22.40;99.90;;;;;;5067451;28;20597;-65
2023/06/08 10:22:13;;;;;;;16.88;9.57;;;22.50;99.90;;;;;;5066457;28;20025;-66
2023/06/08 10:24:40;;;;;;;14.57;9.07;;;22.40;99.90;;;;;;5059753;28;20040;-66
2023/06/08 10:27:29;;;;;;;16.10;9.68;;;22.60;99.90;;;;;;5066320;28;20506;-65
2023/06/08 10:29:55;;;;;;;15.55;8.65;;;22.60;99.90;;;;;;5061650;28;20035;-66
2023/06/08 10:32:42;;;;;;;16.27;9.70;;;22.60;99.90;;;;;;5066047;28;20116;-65
2023/06/08 10:35:10;;;;;;;17.08;9.90;;;22.80;99.90;;;;;;5057873;28;20063;-64
2023/06/08 10:37:37;;;;;;;14.05;8.90;;;23.30;99.90;;;;;;5060338;28;20028;-65
2023/06/08 10:40:10;;;;;;;18.88;9.40;;;23.50;99.90;;;;;;5066414;28;20036;-65
2023/06/08 10:42:36;;;;;;;17.95;9.77;;;23.00;99.90;;;;;;5064294;28;20087;-65
2023/06/08 10:45:04;;;;;;;19.00;8.57;;;23.00;99.90;;;;;;5066253;28;20051;-64
2023/06/08 10:47:32;;;;;;;17.10;8.77;;;23.00;99.90;;;;;;5058730;28;20071;-65
2023/06/08 10:50:01;;;;;;;14.88;8.10;;;23.20;99.90;;;;;;5050340;28;20029;-66
2023/06/08 10:52:28;;;;;;;15.65;9.00;;;23.50;99.90;;;;;;5064831;28;20041;-65
2023/06/08 10:54:57;;;;;;;17.42;9.27;;;23.30;99.90;;;;;;5066052;28;20040;-66
2023/06/08 10:57:41;;;;;;;16.10;9.52;;;23.20;99.90;;;;;;5065298;28;20033;-66
2023/06/08 11:00:23;;;;;;;16.50;8.73;;;23.20;99.90;;;;;;5048283;28;20044;-64
2023/06/08 11:02:49;;;;;;;14.95;9.48;;;23.50;99.90;;;;;;5053105;28;20488;-65
2023/06/08 11:05:16;;;;;;;14.18;9.05;;;23.40;99.90;;;;;;5065332;28;20447;-65
2023/06/08 11:07:42;;;;;;;17.65;9.50;;;23.40;99.90;;;;;;5061670;28;20088;-65
2023/06/08 11:10:08;;;;;;;15.30;9.25;;;23.50;99.90;;;;;;5062385;28;20028;-64
2023/06/08 11:12:34;;;;;;;15.27;8.55;;;;;;;;;;5048799;28;20029;-65
2023/06/08 11:15:00;;;;;;;18.90;9.82;;;23.30;99.90;;;;;;5065689;28;20123;-65
2023/06/08 11:17:26;;;;;;;14.60;8.30;;;23.60;99.90;;;;;;5058154;28;20535;-65
2023/06/08 11:19:55;;;;;;;12.55;8.48;;;;;;;;;;5065150;28;20115;-65
2023/06/08 11:22:23;;;;;;;15.07;8.88;;;23.70;99.90;;;;;;5065404;28;20060;-66
2023/06/08 11:32:13;;;;;;;14.57;8.60;;;23.70;99.90;;;;;;5057317;28;20561;-66
2023/06/08 11:34:45;;;;;;;12.70;7.93;;;23.70;99.90;;;;;;5057013;28;20061;-66
2023/06/08 11:37:14;;;;;;;12.60;7.75;;;24.00;99.90;;;;;;5045117;28;20108;-66
2023/06/08 11:39:48;;;;;;;11.60;7.55;;;24.10;99.90;;;;;;5054719;28;20050;-66
2023/06/08 11:42:14;;;;;;;15.30;8.40;;;24.10;99.90;;;;;;5061920;28;20115;-66
2023/06/08 11:44:40;;;;;;;13.05;8.85;;;24.20;99.90;;;;;;5045782;28;20104;-66
2023/06/08 11:47:08;;;;;;;9.98;7.38;;;24.10;99.90;;;;;;5061476;28;20041;-66
2023/06/08 11:49:53;;;;;;;12.00;7.13;;;24.50;99.90;;;;;;5049114;28;20061;-66
2023/06/08 11:52:22;;;;;;;10.43;7.07;;;24.60;99.90;;;;;;5063364;28;20032;-66
2023/06/08 11:54:55;;;;;;;11.93;7.43;;;24.60;99.90;;;;;;5063783;28;20404;-66
2023/06/08 11:57:21;;;;;;;12.32;7.28;;;24.70;99.90;;;;;;5065021;28;20036;-66
2023/06/08 11:59:47;;;;;;;11.52;7.85;;;24.70;99.90;;;;;;5064948;28;20934;-67
2023/06/08 12:02:13;;;;;;;11.95;7.97;;;24.80;99.90;;;;;;5059161;28;20558;-66
2023/06/08 12:04:40;;;;;;;12.77;7.55;;;24.80;99.90;;;;;;5054273;28;20066;-68
2023/06/08 12:07:12;;;;;;;11.35;7.30;;;24.80;99.90;;;;;;5064846;28;20048;-66
2023/06/08 12:09:38;;;;;;;10.10;7.78;;;24.70;99.90;;;;;;5047630;28;20036;-66
2023/06/08 12:12:11;;;;;;;12.65;7.10;;;24.80;99.90;;;;;;5045349;28;20044;-66
2023/06/08 12:14:42;;;;;;;14.20;7.43;;;24.80;99.90;;;;;;5063309;28;20249;-66
2023/06/08 12:17:08;;;;;;;11.25;7.57;;;24.80;99.90;;;;;;5057126;28;20056;-66
2023/06/08 12:19:34;;;;;;;11.32;7.30;;;24.80;99.90;;;;;;5064162;28;20032;-68
2023/06/08 12:22:00;;;;;;;10.95;7.20;;;25.00;99.90;;;;;;5065513;28;20041;-66
2023/06/08 12:24:25;;;;;;;11.40;7.72;;;24.90;99.90;;;;;;5062102;28;20032;-66
2023/06/08 12:26:51;;;;;;;9.90;6.97;;;25.00;99.90;;;;;;5055973;28;20104;-66
2023/06/08 12:29:18;;;;;;;9.90;7.03;;;25.00;99.90;;;;;;5063922;28;20722;-66
2023/06/08 12:31:43;;;;;;;14.00;7.43;;;25.00;99.90;;;;;;5062915;28;20032;-67
2023/06/08 12:34:09;;;;;;;9.50;6.93;;;25.20;99.90;;;;;;5061745;28;20051;-66
2023/06/08 12:36:35;;;;;;;12.98;6.70;;;25.20;99.90;;;;;;5060982;28;20032;-68
2023/06/08 12:39:01;;;;;;;11.55;7.30;;;25.30;99.90;;;;;;5065018;28;20035;-67
2023/06/08 12:41:26;;;;;;;9.88;6.90;;;25.20;99.90;;;;;;5063269;28;20132;-66
2023/06/08 12:43:52;;;;;;;9.65;7.07;;;25.20;99.90;;;;;;5051041;28;20037;-67
2023/06/08 12:46:22;;;;;;;9.70;6.90;;;25.20;99.90;;;;;;5060835;28;20041;-66